• Join FlightAware (Why Join?)
  • Login
  • US Flag 
12:32PM EDT


 

Airport Tracker/Info


-or-


 

Live Flight TrackerFlight Track Log ✈ SWA407 ✈ 09-May-2013 ✈ KSFO - KSAN

Flight Track Log - Related Links

Times and Time Zones

All times are in EDT time to prevent confusion due to time zone crossing. See the SWA407 flight status page for this flight to view local times or setup timezone preferences in your user account.

Time Position Orientation Groundspeed Altitude Reporting Facility
EDT Latitude Longitude Course Direction KTS MPH feet Rate Location/Type
11:03PM 37.6500 -122.3667 360° North 162 186 1,300  Level Northern Cal TRACON
11:04PM 37.7000 -122.3667 360° North 218 251 4,900 3,420 Climbing Northern Cal TRACON
11:05PM 37.6833 -122.4333 252° West 249 287 8,200 3,000 Climbing Northern Cal TRACON
11:06PM 37.6000 -122.4500 189° South 307 353 10,900 2,280 Climbing Northern Cal TRACON
11:06PM 37.5881 -122.4583 209° Southwest 291 335 11,100 2,760 Climbing Oakland Center
11:07PM 37.4922 -122.4750 188° South 330 380 14,500 3,180 Climbing Oakland Center
11:08PM 37.3914 -122.4928 188° South 358 412 17,700 3,180 Climbing Oakland Center
11:09PM 37.2633 -122.5169 189° South 380 437 21,000 2,880 Climbing Oakland Center
11:10PM 37.1519 -122.5375 188° South 397 457 23,700 2,460 Climbing Oakland Center
11:11PM 37.0361 -122.5583 188° South 415 478 26,100 2,040 Climbing Oakland Center
11:12PM 36.9150 -122.5606 181° South 435 501 28,000 1,740 Climbing Oakland Center
11:13PM 36.7922 -122.5242 167° South 454 522 29,700 1,560 Climbing Oakland Center
11:14PM 36.6936 -122.4219 140° Southeast 458 527 31,200 1,320 Climbing Oakland Center
11:16PM 36.5956 -122.3086 137° Southeast 475 547 32,500 1,380 Climbing Oakland Center
11:17PM 36.4944 -122.1950 138° Southeast 488 562 34,100 1,740 Climbing Oakland Center
11:18PM 36.3728 -122.0597 138° Southeast 491 565 36,100 1,800 Climbing Oakland Center
11:19PM 36.2717 -121.9486 138° Southeast 488 562 37,800 1,380 Climbing Oakland Center
11:20PM 36.1733 -121.8389 138° Southeast 479 551 39,000 540 Climbing Oakland Center
11:21PM 36.0825 -121.7397 139° Southeast 476 548 39,000  Level Oakland Center
11:22PM 35.9847 -121.6333 139° Southeast 471 542 39,000  Level Oakland Center
11:23PM 35.8692 -121.5031 138° Southeast 469 540 39,000  Level Oakland Center
11:24PM 35.7700 -121.3983 139° Southeast 470 541 39,000  Level Oakland Center
11:25PM 35.6722 -121.2900 138° Southeast 473 544 39,000  Level Oakland Center
11:26PM 35.5742 -121.1853 139° Southeast 471 542 39,000  Level Oakland Center
11:27PM 35.4783 -121.0747 137° Southeast 473 544 39,000  Level Oakland Center
11:28PM 35.4050 -120.9433 124° Southeast 469 540 39,000  Level Oakland Center
11:29PM 35.3289 -120.8106 125° Southeast 474 545 39,000  Level Los Angeles Center
11:30PM 35.2525 -120.6753 125° Southeast 481 554 39,000  Level Los Angeles Center
11:31PM 35.1756 -120.5400 125° Southeast 482 555 39,000  Level Los Angeles Center
11:32PM 35.0981 -120.4036 125° Southeast 486 559 39,000  Level Los Angeles Center
11:33PM 35.0211 -120.2678 125° Southeast 484 557 39,000  Level Los Angeles Center
11:34PM 34.9272 -120.1056 125° Southeast 484 557 39,000  Level Los Angeles Center
11:35PM 34.8581 -119.9861 125° Southeast 484 557 39,000  Level Los Angeles Center
11:36PM 34.7658 -119.8272 125° Southeast 483 556 39,000  Level Los Angeles Center
11:37PM 34.6894 -119.6958 125° Southeast 479 551 39,000  Level Los Angeles Center
11:38PM 34.6108 -119.5664 126° Southeast 477 549 39,000  Level Los Angeles Center
11:39PM 34.5386 -119.4431 125° Southeast 475 547 39,000  Level Los Angeles Center
11:40PM 34.4475 -119.2886 126° Southeast 472 543 39,000  Level Los Angeles Center
11:41PM 34.3717 -119.1608 126° Southeast 468 539 39,000  Level Los Angeles Center
11:42PM 34.2947 -119.0350 126° Southeast 468 539 39,000  Level Los Angeles Center
11:43PM 34.2197 -118.9069 125° Southeast 468 539 39,000  Level Los Angeles Center
11:44PM 34.1428 -118.7808 126° Southeast 467 537 39,000  Level Los Angeles Center
11:45PM 34.0672 -118.6561 126° Southeast 462 532 39,000 -480 Level Los Angeles Center
11:46PM 33.9922 -118.5303 126° Southeast 462 532 38,100 -1,920 Descending Los Angeles Center
11:47PM 33.8950 -118.3833 129° Southeast 467 537 35,100 -2,640 Descending Los Angeles Center
11:48PM 33.8022 -118.2703 135° Southeast 455 524 32,700 -2,220 Descending Los Angeles Center
11:49PM 33.7194 -118.1558 131° Southeast 455 524 30,600 -2,160 Descending Los Angeles Center
11:50PM 33.6375 -118.0539 134° Southeast 427 491 28,300 -2,220 Descending Los Angeles Center
11:52PM 33.5581 -117.9533 133° Southeast 416 479 26,100 -2,100 Descending Los Angeles Center
11:53PM 33.4808 -117.8578 134° Southeast 403 464 24,000 -2,340 Descending Los Angeles Center
11:53PM 33.4500 -117.8167 132° Southeast 392 451 23,000 -2,400 Descending Southern California TRACON
11:54PM 33.3667 -117.7167 135° Southeast 395 455 20,900 -1,680 Descending Southern California TRACON
11:55PM 33.3442 -117.6853 131° Southeast 394 453 20,100 -1,980 Descending Los Angeles Center
11:56PM 33.2431 -117.5592 134° Southeast 374 430 17,400 -2,340 Descending Los Angeles Center
11:57PM 33.1586 -117.4867 144° Southeast 372 428 15,300 -1,980 Descending Los Angeles Center
11:58PM 33.0756 -117.4192 146° Southeast 364 419 13,400 -1,860 Descending Los Angeles Center
11:59PM 32.9967 -117.3564 146° Southeast 347 399 11,500 -1,920 Descending Los Angeles Center
12:00AM 32.9192 -117.2942 146° Southeast 338 389 9,500 -1,320 Descending Los Angeles Center
12:01AM 32.8614 -117.2483 146° Southeast 324 373 8,800 -1,320 Descending Los Angeles Center
12:02AM 32.7867 -117.1536 133° Southeast 298 343 6,800 -1,500 Descending Los Angeles Center
12:03AM 32.7581 -117.0719 113° Southeast 277 319 5,700 -900 Descending Los Angeles Center
12:04AM 32.7339 -116.9983 111° Southeast 250 288 5,000 -540 Descending Los Angeles Center
12:05AM 32.7025 -116.9389 122° Southeast 229 264 4,600 -780 Descending Los Angeles Center
12:06AM 32.6828 -116.9831 242° Southwest 221 254 3,400 -1,020 Descending Los Angeles Center
12:07AM 32.7003 -117.0511 287° West 187 215 2,500 -840 Descending Los Angeles Center
12:08AM 32.7167 -117.1000 292° West 160 184 1,800 -840 Descending Southern California TRACON
12:09AM 32.7167 -117.1500 270° West 139 160 900 -660 Descending Southern California TRACON
12:10AM 32.7336 -117.1886 298° West 144 166 400 -480 Descending Los Angeles Center